sensor_id;sensor_type;location;lat;lon;timestamp;P1;durP1;ratioP1;P2;durP2;ratioP2
48578;SDS011;34357;51.948;6.132;2023-07-13T00:02:14;16.27;;;2.50;;
48578;SDS011;34357;51.948;6.132;2023-07-13T00:04:40;11.32;;;1.88;;
48578;SDS011;34357;51.948;6.132;2023-07-13T00:07:07;10.05;;;2.00;;
48578;SDS011;34357;51.948;6.132;2023-07-13T00:09:33;11.25;;;2.70;;
48578;SDS011;34357;51.948;6.132;2023-07-13T00:11:59;10.98;;;2.17;;
48578;SDS011;34357;51.948;6.132;2023-07-13T00:14:26;7.95;;;2.13;;
48578;SDS011;34357;51.948;6.132;2023-07-13T00:16:53;8.30;;;2.50;;
48578;SDS011;34357;51.948;6.132;2023-07-13T00:19:19;9.07;;;2.08;;
48578;SDS011;34357;51.948;6.132;2023-07-13T00:21:45;10.25;;;2.10;;
48578;SDS011;34357;51.948;6.132;2023-07-13T00:24:12;7.40;;;1.92;;
48578;SDS011;34357;51.948;6.132;2023-07-13T00:26:48;10.00;;;1.95;;
48578;SDS011;34357;51.948;6.132;2023-07-13T00:29:14;9.70;;;2.13;;
48578;SDS011;34357;51.948;6.132;2023-07-13T00:31:41;12.82;;;2.20;;
48578;SDS011;34357;51.948;6.132;2023-07-13T00:34:07;11.75;;;2.25;;
48578;SDS011;34357;51.948;6.132;2023-07-13T00:36:33;8.45;;;2.10;;
48578;SDS011;34357;51.948;6.132;2023-07-13T00:38:59;8.27;;;2.10;;
48578;SDS011;34357;51.948;6.132;2023-07-13T00:41:25;7.82;;;1.80;;
48578;SDS011;34357;51.948;6.132;2023-07-13T00:43:51;7.38;;;1.70;;
48578;SDS011;34357;51.948;6.132;2023-07-13T00:48:56;9.20;;;1.80;;
48578;SDS011;34357;51.948;6.132;2023-07-13T00:51:32;7.38;;;2.50;;
48578;SDS011;34357;51.948;6.132;2023-07-13T00:54:13;9.10;;;2.50;;
48578;SDS011;34357;51.948;6.132;2023-07-13T00:56:43;6.75;;;1.90;;
48578;SDS011;34357;51.948;6.132;2023-07-13T00:59:11;6.22;;;1.70;;
48578;SDS011;34357;51.948;6.132;2023-07-13T01:01:40;11.73;;;1.88;;
48578;SDS011;34357;51.948;6.132;2023-07-13T01:04:06;5.47;;;1.90;;
48578;SDS011;34357;51.948;6.132;2023-07-13T01:06:36;11.45;;;2.75;;
48578;SDS011;34357;51.948;6.132;2023-07-13T01:09:06;4.88;;;1.73;;
48578;SDS011;34357;51.948;6.132;2023-07-13T01:11:33;10.88;;;2.45;;
48578;SDS011;34357;51.948;6.132;2023-07-13T01:14:00;6.53;;;1.58;;
48578;SDS011;34357;51.948;6.132;2023-07-13T01:16:27;5.43;;;1.92;;
48578;SDS011;34357;51.948;6.132;2023-07-13T01:18:55;12.10;;;1.77;;
48578;SDS011;34357;51.948;6.132;2023-07-13T01:21:24;5.32;;;1.83;;
48578;SDS011;34357;51.948;6.132;2023-07-13T01:23:51;7.40;;;1.67;;
48578;SDS011;34357;51.948;6.132;2023-07-13T01:26:17;7.18;;;1.90;;
48578;SDS011;34357;51.948;6.132;2023-07-13T01:28:43;7.32;;;2.13;;
48578;SDS011;34357;51.948;6.132;2023-07-13T01:31:09;9.88;;;2.75;;
48578;SDS011;34357;51.948;6.132;2023-07-13T01:33:36;8.90;;;2.28;;
48578;SDS011;34357;51.948;6.132;2023-07-13T01:36:05;8.50;;;1.90;;
48578;SDS011;34357;51.948;6.132;2023-07-13T01:38:32;9.43;;;2.80;;
48578;SDS011;34357;51.948;6.132;2023-07-13T01:40:59;10.27;;;2.65;;
48578;SDS011;34357;51.948;6.132;2023-07-13T01:43:25;10.60;;;2.53;;
48578;SDS011;34357;51.948;6.132;2023-07-13T01:45:51;8.25;;;2.50;;
48578;SDS011;34357;51.948;6.132;2023-07-13T01:48:17;10.85;;;2.80;;
48578;SDS011;34357;51.948;6.132;2023-07-13T01:50:43;8.68;;;2.70;;
48578;SDS011;34357;51.948;6.132;2023-07-13T01:53:09;11.88;;;2.55;;
48578;SDS011;34357;51.948;6.132;2023-07-13T01:55:35;12.15;;;2.33;;
48578;SDS011;34357;51.948;6.132;2023-07-13T01:58:02;10.02;;;2.65;;
48578;SDS011;34357;51.948;6.132;2023-07-13T02:00:29;14.45;;;3.70;;
48578;SDS011;34357;51.948;6.132;2023-07-13T02:02:54;12.90;;;2.90;;
48578;SDS011;34357;51.948;6.132;2023-07-13T02:05:20;11.73;;;3.00;;
48578;SDS011;34357;51.948;6.132;2023-07-13T02:07:46;12.00;;;3.20;;
48578;SDS011;34357;51.948;6.132;2023-07-13T02:10:12;11.45;;;3.20;;
48578;SDS011;34357;51.948;6.132;2023-07-13T02:12:38;17.23;;;3.55;;
48578;SDS011;34357;51.948;6.132;2023-07-13T02:15:05;16.25;;;3.70;;
48578;SDS011;34357;51.948;6.132;2023-07-13T02:17:31;13.52;;;3.50;;
48578;SDS011;34357;51.948;6.132;2023-07-13T02:19:57;12.30;;;3.42;;
48578;SDS011;34357;51.948;6.132;2023-07-13T02:22:23;12.80;;;3.40;;
48578;SDS011;34357;51.948;6.132;2023-07-13T02:24:49;18.27;;;4.10;;
48578;SDS011;34357;51.948;6.132;2023-07-13T02:27:17;15.00;;;4.20;;
48578;SDS011;34357;51.948;6.132;2023-07-13T02:29:43;14.52;;;4.72;;
48578;SDS011;34357;51.948;6.132;2023-07-13T02:32:09;17.30;;;4.55;;
48578;SDS011;34357;51.948;6.132;2023-07-13T02:34:35;10.38;;;3.70;;
48578;SDS011;34357;51.948;6.132;2023-07-13T02:37:03;12.23;;;3.40;;
48578;SDS011;34357;51.948;6.132;2023-07-13T02:39:29;14.75;;;3.40;;
48578;SDS011;34357;51.948;6.132;2023-07-13T02:41:58;12.52;;;3.30;;
48578;SDS011;34357;51.948;6.132;2023-07-13T02:44:24;13.25;;;3.80;;
48578;SDS011;34357;51.948;6.132;2023-07-13T02:46:50;13.88;;;3.38;;
48578;SDS011;34357;51.948;6.132;2023-07-13T02:49:15;12.13;;;3.55;;
48578;SDS011;34357;51.948;6.132;2023-07-13T02:51:41;12.15;;;4.10;;
48578;SDS011;34357;51.948;6.132;2023-07-13T02:54:07;12.88;;;4.13;;
48578;SDS011;34357;51.948;6.132;2023-07-13T02:56:34;13.93;;;4.40;;
48578;SDS011;34357;51.948;6.132;2023-07-13T02:59:00;12.75;;;3.70;;
48578;SDS011;34357;51.948;6.132;2023-07-13T03:01:26;12.32;;;4.00;;
48578;SDS011;34357;51.948;6.132;2023-07-13T03:03:52;11.80;;;3.97;;
48578;SDS011;34357;51.948;6.132;2023-07-13T03:06:18;12.23;;;3.70;;
48578;SDS011;34357;51.948;6.132;2023-07-13T03:08:49;13.98;;;4.38;;
48578;SDS011;34357;51.948;6.132;2023-07-13T03:11:17;13.35;;;3.85;;
48578;SDS011;34357;51.948;6.132;2023-07-13T03:13:48;16.88;;;3.60;;
48578;SDS011;34357;51.948;6.132;2023-07-13T03:16:14;14.55;;;3.95;;
48578;SDS011;34357;51.948;6.132;2023-07-13T03:18:43;14.10;;;4.00;;
48578;SDS011;34357;51.948;6.132;2023-07-13T03:21:10;13.55;;;3.97;;
48578;SDS011;34357;51.948;6.132;2023-07-13T03:23:38;11.07;;;4.07;;
48578;SDS011;34357;51.948;6.132;2023-07-13T03:26:05;13.15;;;3.95;;
48578;SDS011;34357;51.948;6.132;2023-07-13T03:28:33;17.13;;;5.10;;
48578;SDS011;34357;51.948;6.132;2023-07-13T03:31:03;20.60;;;4.55;;
48578;SDS011;34357;51.948;6.132;2023-07-13T03:33:32;13.98;;;4.50;;
48578;SDS011;34357;51.948;6.132;2023-07-13T03:35:58;12.82;;;4.07;;
48578;SDS011;34357;51.948;6.132;2023-07-13T03:38:24;18.73;;;3.97;;
48578;SDS011;34357;51.948;6.132;2023-07-13T03:40:51;17.88;;;4.63;;
48578;SDS011;34357;51.948;6.132;2023-07-13T03:43:17;18.13;;;4.40;;
48578;SDS011;34357;51.948;6.132;2023-07-13T03:45:43;12.23;;;3.97;;
48578;SDS011;34357;51.948;6.132;2023-07-13T03:48:09;14.63;;;4.13;;
48578;SDS011;34357;51.948;6.132;2023-07-13T03:50:35;13.15;;;4.05;;
48578;SDS011;34357;51.948;6.132;2023-07-13T03:53:02;16.27;;;5.20;;
48578;SDS011;34357;51.948;6.132;2023-07-13T03:55:28;18.00;;;4.55;;
48578;SDS011;34357;51.948;6.132;2023-07-13T03:57:57;15.38;;;4.43;;
48578;SDS011;34357;51.948;6.132;2023-07-13T04:00:26;16.73;;;4.85;;
48578;SDS011;34357;51.948;6.132;2023-07-13T04:02:53;15.45;;;4.45;;
48578;SDS011;34357;51.948;6.132;2023-07-13T04:05:19;16.15;;;5.35;;
48578;SDS011;34357;51.948;6.132;2023-07-13T04:07:45;16.25;;;4.47;;
48578;SDS011;34357;51.948;6.132;2023-07-13T04:10:11;17.73;;;5.07;;
48578;SDS011;34357;51.948;6.132;2023-07-13T04:12:36;19.48;;;5.75;;
48578;SDS011;34357;51.948;6.132;2023-07-13T04:15:02;15.50;;;4.60;;
48578;SDS011;34357;51.948;6.132;2023-07-13T04:17:28;13.13;;;5.13;;
48578;SDS011;34357;51.948;6.132;2023-07-13T04:19:54;18.15;;;5.47;;
48578;SDS011;34357;51.948;6.132;2023-07-13T04:22:20;20.98;;;6.07;;
48578;SDS011;34357;51.948;6.132;2023-07-13T04:24:45;20.40;;;5.50;;
48578;SDS011;34357;51.948;6.132;2023-07-13T04:27:11;14.27;;;5.93;;
48578;SDS011;34357;51.948;6.132;2023-07-13T04:29:37;17.27;;;6.22;;
48578;SDS011;34357;51.948;6.132;2023-07-13T04:32:03;16.50;;;5.43;;
48578;SDS011;34357;51.948;6.132;2023-07-13T04:34:29;17.00;;;6.20;;
48578;SDS011;34357;51.948;6.132;2023-07-13T04:36:54;16.02;;;5.85;;
48578;SDS011;34357;51.948;6.132;2023-07-13T04:39:20;20.85;;;5.88;;
48578;SDS011;34357;51.948;6.132;2023-07-13T04:41:46;16.38;;;5.70;;
48578;SDS011;34357;51.948;6.132;2023-07-13T04:44:12;27.23;;;6.10;;
48578;SDS011;34357;51.948;6.132;2023-07-13T04:46:37;16.27;;;6.20;;
48578;SDS011;34357;51.948;6.132;2023-07-13T04:49:03;22.83;;;6.55;;
48578;SDS011;34357;51.948;6.132;2023-07-13T04:51:29;17.42;;;5.93;;
48578;SDS011;34357;51.948;6.132;2023-07-13T04:53:55;18.45;;;6.55;;
48578;SDS011;34357;51.948;6.132;2023-07-13T04:56:20;16.88;;;6.30;;
48578;SDS011;34357;51.948;6.132;2023-07-13T04:58:46;10.90;;;5.97;;
48578;SDS011;34357;51.948;6.132;2023-07-13T05:01:12;20.27;;;6.13;;
48578;SDS011;34357;51.948;6.132;2023-07-13T05:03:39;17.30;;;5.85;;
48578;SDS011;34357;51.948;6.132;2023-07-13T05:06:05;17.90;;;5.47;;
48578;SDS011;34357;51.948;6.132;2023-07-13T05:08:32;14.52;;;5.28;;
48578;SDS011;34357;51.948;6.132;2023-07-13T05:10:59;16.52;;;5.72;;
48578;SDS011;34357;51.948;6.132;2023-07-13T05:13:25;17.00;;;5.60;;
48578;SDS011;34357;51.948;6.132;2023-07-13T05:16:24;18.10;;;6.15;;
48578;SDS011;34357;51.948;6.132;2023-07-13T05:18:44;18.63;;;6.07;;
48578;SDS011;34357;51.948;6.132;2023-07-13T05:21:10;17.73;;;5.88;;
48578;SDS011;34357;51.948;6.132;2023-07-13T05:23:36;18.70;;;5.90;;
48578;SDS011;34357;51.948;6.132;2023-07-13T05:26:02;22.30;;;6.15;;
48578;SDS011;34357;51.948;6.132;2023-07-13T05:28:30;24.48;;;6.00;;
48578;SDS011;34357;51.948;6.132;2023-07-13T05:30:56;14.93;;;5.45;;
48578;SDS011;34357;51.948;6.132;2023-07-13T05:33:22;17.52;;;6.63;;
48578;SDS011;34357;51.948;6.132;2023-07-13T05:35:48;24.00;;;6.22;;
48578;SDS011;34357;51.948;6.132;2023-07-13T05:38:14;15.98;;;6.30;;
48578;SDS011;34357;51.948;6.132;2023-07-13T05:40:42;24.65;;;6.97;;
48578;SDS011;34357;51.948;6.132;2023-07-13T05:43:08;23.45;;;6.88;;
48578;SDS011;34357;51.948;6.132;2023-07-13T05:45:35;26.50;;;8.55;;
48578;SDS011;34357;51.948;6.132;2023-07-13T05:48:00;26.13;;;8.75;;
48578;SDS011;34357;51.948;6.132;2023-07-13T05:50:26;24.23;;;8.00;;
48578;SDS011;34357;51.948;6.132;2023-07-13T05:52:52;25.25;;;8.45;;
48578;SDS011;34357;51.948;6.132;2023-07-13T05:55:19;26.42;;;8.63;;
48578;SDS011;34357;51.948;6.132;2023-07-13T05:57:45;29.75;;;9.55;;
48578;SDS011;34357;51.948;6.132;2023-07-13T06:00:10;31.85;;;11.18;;
48578;SDS011;34357;51.948;6.132;2023-07-13T06:02:39;27.40;;;11.02;;
48578;SDS011;34357;51.948;6.132;2023-07-13T06:05:05;38.05;;;11.05;;
48578;SDS011;34357;51.948;6.132;2023-07-13T06:07:31;30.80;;;10.63;;
48578;SDS011;34357;51.948;6.132;2023-07-13T06:09:57;21.17;;;8.18;;
48578;SDS011;34357;51.948;6.132;2023-07-13T06:12:24;32.50;;;10.77;;
48578;SDS011;34357;51.948;6.132;2023-07-13T06:14:50;35.75;;;12.07;;
48578;SDS011;34357;51.948;6.132;2023-07-13T06:17:16;40.58;;;11.32;;
48578;SDS011;34357;51.948;6.132;2023-07-13T06:19:43;27.92;;;10.20;;
48578;SDS011;34357;51.948;6.132;2023-07-13T06:22:08;33.67;;;12.15;;
48578;SDS011;34357;51.948;6.132;2023-07-13T06:24:34;31.30;;;11.35;;
48578;SDS011;34357;51.948;6.132;2023-07-13T06:27:00;31.40;;;11.48;;
48578;SDS011;34357;51.948;6.132;2023-07-13T06:29:26;26.52;;;11.85;;
48578;SDS011;34357;51.948;6.132;2023-07-13T06:31:51;28.42;;;11.60;;
48578;SDS011;34357;51.948;6.132;2023-07-13T06:34:17;31.80;;;11.80;;
48578;SDS011;34357;51.948;6.132;2023-07-13T06:36:43;28.33;;;11.43;;
48578;SDS011;34357;51.948;6.132;2023-07-13T06:39:09;34.85;;;12.07;;
48578;SDS011;34357;51.948;6.132;2023-07-13T06:41:35;29.50;;;12.57;;
48578;SDS011;34357;51.948;6.132;2023-07-13T06:44:01;23.77;;;11.27;;
48578;SDS011;34357;51.948;6.132;2023-07-13T06:46:28;28.38;;;11.27;;
48578;SDS011;34357;51.948;6.132;2023-07-13T06:48:54;27.23;;;11.30;;
48578;SDS011;34357;51.948;6.132;2023-07-13T06:51:19;29.30;;;12.07;;
48578;SDS011;34357;51.948;6.132;2023-07-13T06:53:45;31.33;;;12.88;;
48578;SDS011;34357;51.948;6.132;2023-07-13T06:56:11;33.33;;;13.77;;
48578;SDS011;34357;51.948;6.132;2023-07-13T06:58:37;26.58;;;11.90;;
48578;SDS011;34357;51.948;6.132;2023-07-13T07:01:03;31.48;;;13.38;;
48578;SDS011;34357;51.948;6.132;2023-07-13T07:03:30;29.38;;;14.05;;
48578;SDS011;34357;51.948;6.132;2023-07-13T07:06:00;30.10;;;13.90;;
48578;SDS011;34357;51.948;6.132;2023-07-13T07:10:52;32.03;;;12.82;;
48578;SDS011;34357;51.948;6.132;2023-07-13T07:13:19;34.10;;;13.18;;
48578;SDS011;34357;51.948;6.132;2023-07-13T07:15:45;31.95;;;14.13;;
48578;SDS011;34357;51.948;6.132;2023-07-13T07:18:11;31.58;;;13.85;;
48578;SDS011;34357;51.948;6.132;2023-07-13T07:20:36;28.25;;;13.48;;
48578;SDS011;34357;51.948;6.132;2023-07-13T07:23:02;35.10;;;14.57;;
48578;SDS011;34357;51.948;6.132;2023-07-13T07:25:28;30.05;;;13.65;;
48578;SDS011;34357;51.948;6.132;2023-07-13T07:27:57;29.65;;;14.40;;
48578;SDS011;34357;51.948;6.132;2023-07-13T07:30:24;33.83;;;14.95;;
48578;SDS011;34357;51.948;6.132;2023-07-13T07:32:50;30.80;;;13.48;;
48578;SDS011;34357;51.948;6.132;2023-07-13T07:35:15;27.73;;;14.07;;
48578;SDS011;34357;51.948;6.132;2023-07-13T07:37:41;35.00;;;15.10;;
48578;SDS011;34357;51.948;6.132;2023-07-13T07:40:07;33.58;;;15.20;;
48578;SDS011;34357;51.948;6.132;2023-07-13T07:42:33;29.48;;;14.68;;
48578;SDS011;34357;51.948;6.132;2023-07-13T07:44:59;36.65;;;15.20;;
48578;SDS011;34357;51.948;6.132;2023-07-13T07:47:26;35.50;;;15.75;;
48578;SDS011;34357;51.948;6.132;2023-07-13T07:49:51;35.78;;;15.13;;
48578;SDS011;34357;51.948;6.132;2023-07-13T07:52:18;37.13;;;15.20;;
48578;SDS011;34357;51.948;6.132;2023-07-13T07:54:43;34.22;;;14.55;;
48578;SDS011;34357;51.948;6.132;2023-07-13T07:57:09;30.38;;;14.07;;
48578;SDS011;34357;51.948;6.132;2023-07-13T07:59:36;30.88;;;13.57;;
48578;SDS011;34357;51.948;6.132;2023-07-13T08:02:02;33.28;;;15.05;;
48578;SDS011;34357;51.948;6.132;2023-07-13T08:04:28;32.88;;;15.10;;
48578;SDS011;34357;51.948;6.132;2023-07-13T08:06:54;32.20;;;14.40;;
48578;SDS011;34357;51.948;6.132;2023-07-13T08:09:21;35.78;;;14.18;;
48578;SDS011;34357;51.948;6.132;2023-07-13T08:11:47;29.35;;;13.77;;
48578;SDS011;34357;51.948;6.132;2023-07-13T08:14:13;26.55;;;12.65;;
48578;SDS011;34357;51.948;6.132;2023-07-13T08:16:39;32.42;;;12.18;;
48578;SDS011;34357;51.948;6.132;2023-07-13T08:19:05;30.30;;;12.43;;
48578;SDS011;34357;51.948;6.132;2023-07-13T08:21:31;26.98;;;12.23;;
48578;SDS011;34357;51.948;6.132;2023-07-13T08:23:57;29.05;;;13.48;;
48578;SDS011;34357;51.948;6.132;2023-07-13T08:26:23;28.13;;;11.98;;
48578;SDS011;34357;51.948;6.132;2023-07-13T08:28:48;33.97;;;12.43;;
48578;SDS011;34357;51.948;6.132;2023-07-13T08:31:14;35.10;;;12.82;;
48578;SDS011;34357;51.948;6.132;2023-07-13T08:33:40;27.40;;;12.48;;
48578;SDS011;34357;51.948;6.132;2023-07-13T08:36:06;28.30;;;12.35;;
48578;SDS011;34357;51.948;6.132;2023-07-13T08:38:32;23.23;;;11.73;;
48578;SDS011;34357;51.948;6.132;2023-07-13T08:40:58;25.23;;;11.70;;
48578;SDS011;34357;51.948;6.132;2023-07-13T08:43:30;28.17;;;11.68;;
48578;SDS011;34357;51.948;6.132;2023-07-13T08:48:52;26.77;;;10.57;;
48578;SDS011;34357;51.948;6.132;2023-07-13T08:54:07;19.30;;;9.05;;
48578;SDS011;34357;51.948;6.132;2023-07-13T08:56:47;21.75;;;9.60;;
48578;SDS011;34357;51.948;6.132;2023-07-13T08:59:18;25.83;;;10.57;;
48578;SDS011;34357;51.948;6.132;2023-07-13T09:04:20;19.65;;;8.93;;
48578;SDS011;34357;51.948;6.132;2023-07-13T09:12:17;20.55;;;8.68;;
48578;SDS011;34357;51.948;6.132;2023-07-13T09:15:03;20.73;;;8.55;;
48578;SDS011;34357;51.948;6.132;2023-07-13T09:17:40;21.90;;;8.75;;
48578;SDS011;34357;51.948;6.132;2023-07-13T09:20:14;18.20;;;7.70;;
48578;SDS011;34357;51.948;6.132;2023-07-13T09:22:59;21.38;;;8.43;;
48578;SDS011;34357;51.948;6.132;2023-07-13T09:25:31;21.27;;;8.20;;
48578;SDS011;34357;51.948;6.132;2023-07-13T09:33:18;15.73;;;6.97;;
48578;SDS011;34357;51.948;6.132;2023-07-13T09:35:45;16.48;;;7.07;;
48578;SDS011;34357;51.948;6.132;2023-07-13T09:38:12;19.20;;;7.85;;
48578;SDS011;34357;51.948;6.132;2023-07-13T09:40:44;14.82;;;6.35;;
48578;SDS011;34357;51.948;6.132;2023-07-13T09:43:14;16.00;;;5.88;;
48578;SDS011;34357;51.948;6.132;2023-07-13T09:45:42;14.10;;;6.05;;
48578;SDS011;34357;51.948;6.132;2023-07-13T09:48:12;17.70;;;6.60;;
48578;SDS011;34357;51.948;6.132;2023-07-13T09:50:40;15.68;;;7.18;;
48578;SDS011;34357;51.948;6.132;2023-07-13T09:55:40;16.13;;;6.75;;
48578;SDS011;34357;51.948;6.132;2023-07-13T09:58:12;15.45;;;5.93;;
48578;SDS011;34357;51.948;6.132;2023-07-13T10:00:40;14.68;;;6.55;;
48578;SDS011;34357;51.948;6.132;2023-07-13T10:03:19;19.42;;;8.18;;
48578;SDS011;34357;51.948;6.132;2023-07-13T10:05:48;20.38;;;11.40;;
48578;SDS011;34357;51.948;6.132;2023-07-13T10:08:34;21.65;;;12.93;;
48578;SDS011;34357;51.948;6.132;2023-07-13T10:11:01;22.23;;;11.98;;
48578;SDS011;34357;51.948;6.132;2023-07-13T10:13:35;24.48;;;12.25;;
48578;SDS011;34357;51.948;6.132;2023-07-13T10:16:06;20.47;;;11.57;;
48578;SDS011;34357;51.948;6.132;2023-07-13T10:18:46;20.13;;;12.65;;
48578;SDS011;34357;51.948;6.132;2023-07-13T10:21:19;16.85;;;11.13;;
48578;SDS011;34357;51.948;6.132;2023-07-13T10:23:55;12.85;;;8.68;;
48578;SDS011;34357;51.948;6.132;2023-07-13T10:26:29;12.93;;;9.25;;
48578;SDS011;34357;51.948;6.132;2023-07-13T10:28:59;18.13;;;9.60;;
48578;SDS011;34357;51.948;6.132;2023-07-13T10:31:29;16.70;;;9.30;;
48578;SDS011;34357;51.948;6.132;2023-07-13T10:33:56;17.63;;;11.43;;
48578;SDS011;34357;51.948;6.132;2023-07-13T10:36:27;17.08;;;11.52;;
48578;SDS011;34357;51.948;6.132;2023-07-13T10:39:05;18.55;;;12.35;;
48578;SDS011;34357;51.948;6.132;2023-07-13T10:41:36;20.65;;;12.25;;
48578;SDS011;34357;51.948;6.132;2023-07-13T10:44:05;20.85;;;11.93;;
48578;SDS011;34357;51.948;6.132;2023-07-13T10:46:47;20.83;;;12.82;;
48578;SDS011;34357;51.948;6.132;2023-07-13T10:49:13;20.55;;;11.68;;
48578;SDS011;34357;51.948;6.132;2023-07-13T10:51:40;21.15;;;12.10;;
48578;SDS011;34357;51.948;6.132;2023-07-13T10:56:38;22.63;;;11.90;;
48578;SDS011;34357;51.948;6.132;2023-07-13T10:59:09;14.95;;;8.05;;
48578;SDS011;34357;51.948;6.132;2023-07-13T11:04:20;11.88;;;6.45;;
48578;SDS011;34357;51.948;6.132;2023-07-13T11:06:47;14.68;;;6.95;;
48578;SDS011;34357;51.948;6.132;2023-07-13T11:09:19;16.10;;;8.80;;
48578;SDS011;34357;51.948;6.132;2023-07-13T11:12:02;17.55;;;9.32;;
48578;SDS011;34357;51.948;6.132;2023-07-13T11:17:34;17.88;;;10.63;;
48578;SDS011;34357;51.948;6.132;2023-07-13T11:27:52;16.13;;;10.43;;
48578;SDS011;34357;51.948;6.132;2023-07-13T11:30:35;18.15;;;10.05;;
48578;SDS011;34357;51.948;6.132;2023-07-13T11:38:36;15.30;;;8.43;;
48578;SDS011;34357;51.948;6.132;2023-07-13T11:41:03;13.73;;;7.80;;
48578;SDS011;34357;51.948;6.132;2023-07-13T11:43:32;18.67;;;8.02;;
48578;SDS011;34357;51.948;6.132;2023-07-13T11:46:11;14.27;;;8.35;;
48578;SDS011;34357;51.948;6.132;2023-07-13T11:48:41;14.48;;;9.77;;
48578;SDS011;34357;51.948;6.132;2023-07-13T11:51:07;16.83;;;8.88;;
48578;SDS011;34357;51.948;6.132;2023-07-13T11:53:46;16.25;;;8.20;;
48578;SDS011;34357;51.948;6.132;2023-07-13T11:56:14;10.93;;;5.82;;
48578;SDS011;34357;51.948;6.132;2023-07-13T11:58:40;12.45;;;4.80;;
48578;SDS011;34357;51.948;6.132;2023-07-13T12:01:06;9.80;;;4.07;;
48578;SDS011;34357;51.948;6.132;2023-07-13T12:03:52;10.25;;;3.70;;
48578;SDS011;34357;51.948;6.132;2023-07-13T12:09:00;11.77;;;3.85;;
48578;SDS011;34357;51.948;6.132;2023-07-13T12:11:38;10.07;;;3.70;;
48578;SDS011;34357;51.948;6.132;2023-07-13T12:14:12;8.82;;;3.53;;
48578;SDS011;34357;51.948;6.132;2023-07-13T12:16:40;10.70;;;3.30;;
48578;SDS011;34357;51.948;6.132;2023-07-13T12:19:14;7.22;;;2.78;;
48578;SDS011;34357;51.948;6.132;2023-07-13T12:21:44;9.35;;;2.97;;
48578;SDS011;34357;51.948;6.132;2023-07-13T12:24:14;6.75;;;2.60;;
48578;SDS011;34357;51.948;6.132;2023-07-13T12:26:41;6.40;;;2.78;;
48578;SDS011;34357;51.948;6.132;2023-07-13T12:29:07;8.27;;;3.50;;
48578;SDS011;34357;51.948;6.132;2023-07-13T12:31:42;8.55;;;3.92;;
48578;SDS011;34357;51.948;6.132;2023-07-13T12:34:16;9.45;;;3.80;;
48578;SDS011;34357;51.948;6.132;2023-07-13T12:39:23;8.07;;;3.80;;
48578;SDS011;34357;51.948;6.132;2023-07-13T12:44:49;7.82;;;3.60;;
48578;SDS011;34357;51.948;6.132;2023-07-13T12:47:15;8.60;;;3.38;;
48578;SDS011;34357;51.948;6.132;2023-07-13T12:49:42;7.28;;;3.78;;
48578;SDS011;34357;51.948;6.132;2023-07-13T12:52:14;7.43;;;3.85;;
48578;SDS011;34357;51.948;6.132;2023-07-13T12:54:42;6.10;;;3.30;;
48578;SDS011;34357;51.948;6.132;2023-07-13T12:57:17;8.13;;;3.97;;
48578;SDS011;34357;51.948;6.132;2023-07-13T12:59:43;8.75;;;3.75;;
48578;SDS011;34357;51.948;6.132;2023-07-13T13:04:59;9.63;;;3.67;;
48578;SDS011;34357;51.948;6.132;2023-07-13T13:07:25;9.05;;;3.40;;
48578;SDS011;34357;51.948;6.132;2023-07-13T13:09:51;7.18;;;3.15;;
48578;SDS011;34357;51.948;6.132;2023-07-13T13:12:19;5.82;;;2.92;;
48578;SDS011;34357;51.948;6.132;2023-07-13T13:14:44;7.82;;;3.22;;
48578;SDS011;34357;51.948;6.132;2023-07-13T13:17:20;8.23;;;3.80;;
48578;SDS011;34357;51.948;6.132;2023-07-13T13:19:49;7.30;;;3.45;;
48578;SDS011;34357;51.948;6.132;2023-07-13T13:22:19;8.75;;;3.40;;
48578;SDS011;34357;51.948;6.132;2023-07-13T13:24:45;8.60;;;3.05;;
48578;SDS011;34357;51.948;6.132;2023-07-13T13:27:21;6.00;;;2.55;;
48578;SDS011;34357;51.948;6.132;2023-07-13T13:29:49;5.90;;;2.53;;
48578;SDS011;34357;51.948;6.132;2023-07-13T13:34:45;4.45;;;2.10;;
48578;SDS011;34357;51.948;6.132;2023-07-13T13:37:18;7.65;;;2.60;;
48578;SDS011;34357;51.948;6.132;2023-07-13T13:39:44;5.13;;;2.42;;
48578;SDS011;34357;51.948;6.132;2023-07-13T13:42:10;7.75;;;2.83;;
48578;SDS011;34357;51.948;6.132;2023-07-13T13:44:36;10.93;;;3.05;;
48578;SDS011;34357;51.948;6.132;2023-07-13T13:47:02;6.20;;;2.75;;
48578;SDS011;34357;51.948;6.132;2023-07-13T13:49:29;6.32;;;3.15;;
48578;SDS011;34357;51.948;6.132;2023-07-13T13:51:55;8.52;;;2.83;;
48578;SDS011;34357;51.948;6.132;2023-07-13T13:54:23;8.25;;;2.95;;
48578;SDS011;34357;51.948;6.132;2023-07-13T13:56:51;6.18;;;2.30;;
48578;SDS011;34357;51.948;6.132;2023-07-13T13:59:17;5.35;;;2.25;;
48578;SDS011;34357;51.948;6.132;2023-07-13T14:01:44;7.65;;;2.45;;
48578;SDS011;34357;51.948;6.132;2023-07-13T14:04:14;7.20;;;2.50;;
48578;SDS011;34357;51.948;6.132;2023-07-13T14:06:43;7.63;;;2.30;;
48578;SDS011;34357;51.948;6.132;2023-07-13T14:09:13;8.23;;;2.30;;
48578;SDS011;34357;51.948;6.132;2023-07-13T14:11:41;4.55;;;2.00;;
48578;SDS011;34357;51.948;6.132;2023-07-13T14:14:09;4.82;;;2.65;;
48578;SDS011;34357;51.948;6.132;2023-07-13T14:16:43;9.85;;;2.60;;
48578;SDS011;34357;51.948;6.132;2023-07-13T14:19:12;4.25;;;2.30;;
48578;SDS011;34357;51.948;6.132;2023-07-13T14:21:39;5.50;;;2.00;;
48578;SDS011;34357;51.948;6.132;2023-07-13T14:24:05;6.80;;;2.00;;
48578;SDS011;34357;51.948;6.132;2023-07-13T14:26:32;3.85;;;2.22;;
48578;SDS011;34357;51.948;6.132;2023-07-13T14:29:04;7.90;;;2.13;;
48578;SDS011;34357;51.948;6.132;2023-07-13T14:31:36;3.92;;;2.10;;
48578;SDS011;34357;51.948;6.132;2023-07-13T14:34:02;3.33;;;1.80;;
48578;SDS011;34357;51.948;6.132;2023-07-13T14:36:32;5.07;;;2.22;;
48578;SDS011;34357;51.948;6.132;2023-07-13T14:39:22;7.18;;;2.30;;
48578;SDS011;34357;51.948;6.132;2023-07-13T14:41:49;6.43;;;2.30;;
48578;SDS011;34357;51.948;6.132;2023-07-13T14:44:17;6.55;;;2.40;;
48578;SDS011;34357;51.948;6.132;2023-07-13T14:46:46;6.28;;;2.45;;
48578;SDS011;34357;51.948;6.132;2023-07-13T14:49:29;6.22;;;2.58;;
48578;SDS011;34357;51.948;6.132;2023-07-13T14:54:45;4.38;;;3.00;;
48578;SDS011;34357;51.948;6.132;2023-07-13T14:57:12;6.13;;;2.58;;
48578;SDS011;34357;51.948;6.132;2023-07-13T14:59:39;7.65;;;2.88;;
48578;SDS011;34357;51.948;6.132;2023-07-13T15:02:15;7.43;;;2.70;;
48578;SDS011;34357;51.948;6.132;2023-07-13T15:04:41;5.57;;;2.60;;
48578;SDS011;34357;51.948;6.132;2023-07-13T15:07:07;5.85;;;2.45;;
48578;SDS011;34357;51.948;6.132;2023-07-13T15:09:35;5.72;;;2.72;;
48578;SDS011;34357;51.948;6.132;2023-07-13T15:12:01;7.38;;;2.50;;
48578;SDS011;34357;51.948;6.132;2023-07-13T15:14:27;8.48;;;2.95;;
48578;SDS011;34357;51.948;6.132;2023-07-13T15:16:54;7.63;;;2.97;;
48578;SDS011;34357;51.948;6.132;2023-07-13T15:19:21;8.32;;;3.00;;
48578;SDS011;34357;51.948;6.132;2023-07-13T15:21:48;8.18;;;3.00;;
48578;SDS011;34357;51.948;6.132;2023-07-13T15:24:15;7.40;;;2.72;;
48578;SDS011;34357;51.948;6.132;2023-07-13T15:26:41;6.63;;;3.38;;
48578;SDS011;34357;51.948;6.132;2023-07-13T15:29:10;6.13;;;2.70;;
48578;SDS011;34357;51.948;6.132;2023-07-13T15:31:37;8.38;;;3.35;;
48578;SDS011;34357;51.948;6.132;2023-07-13T15:34:09;5.50;;;2.30;;
48578;SDS011;34357;51.948;6.132;2023-07-13T15:36:38;6.63;;;2.80;;
48578;SDS011;34357;51.948;6.132;2023-07-13T15:39:05;7.10;;;2.88;;
48578;SDS011;34357;51.948;6.132;2023-07-13T15:41:31;6.53;;;2.65;;
48578;SDS011;34357;51.948;6.132;2023-07-13T15:43:58;9.27;;;2.63;;
48578;SDS011;34357;51.948;6.132;2023-07-13T15:46:26;4.50;;;2.83;;